Flight Track Log - Related Links

Times and Time Zones

All times are in EDT time to prevent confusion due to time zone crossing. See the EDG93 flight status page for this flight to view local times or setup timezone preferences in your user account.

Time Position Orientation Groundspeed Altitude Reporting Facility
EDT Latitude Longitude Course Direction KTS MPH feet Rate Location/Type
Sun 06:10:59 PM 36.0625 -115.1753 214° Southwest 207 238 3,200  Level Los Angeles Center
Sun 06:12:05 PM 36.0064 -115.2228 214° Southwest 257 296 5,500 2,137 Climbing Los Angeles Center
Sun 06:12:12 PM 36.0000 -115.2358 239° Southwest 259 298 5,800 2,129 Climbing Los Angeles Center
Sun 06:13:07 PM 35.9597 -115.2989 232° Southwest 288 331 7,700 2,149 Climbing Los Angeles Center
Sun 06:13:19 PM 35.9436 -115.3047 196° South 284 327 8,200 2,323 Climbing Los Angeles Center
Sun 06:14:09 PM 35.8806 -115.3117 185° South 288 331 10,100 2,384 Climbing Los Angeles Center
Sun 06:14:32 PM 35.8461 -115.3128 181° South 291 335 11,100 2,129 Climbing Los Angeles Center
Sun 06:15:11 PM 35.7989 -115.3103 178° South 290 334 12,300 2,020 Climbing Los Angeles Center
Sun 06:16:13 PM 35.7167 -115.2989 174° South 294 338 14,500 2,032 Climbing Los Angeles Center
Sun 06:17:15 PM 35.6447 -115.3406 205° Southwest 307 353 16,500 1,984 Climbing Los Angeles Center
Sun 06:18:17 PM 35.5731 -115.4356 227° Southwest 315 362 18,600 1,984 Climbing Los Angeles Center
Sun 06:19:19 PM 35.5125 -115.5172 228° Southwest 320 368 20,600 1,887 Climbing Los Angeles Center
Sun 06:20:21 PM 35.4550 -115.5958 228° Southwest 322 371 22,500 1,824 Climbing Los Angeles Center
Sun 06:21:24 PM 35.3933 -115.6767 227° Southwest 324 373 24,400 1,824 Climbing Los Angeles Center
Sun 06:22:26 PM 35.3331 -115.7578 228° Southwest 323 372 26,300 1,548 Climbing Los Angeles Center
Sun 06:23:28 PM 35.2706 -115.8408 227° Southwest 330 380 27,600 1,403 Climbing Los Angeles Center
Sun 06:24:30 PM 35.1903 -115.9464 227° Southwest 350 403 29,200 1,161 Climbing Los Angeles Center
Sun 06:25:32 PM 35.1211 -116.0383 227° Southwest 364 419 30,000 387 Climbing Los Angeles Center
Sun 06:26:34 PM 35.0458 -116.1367 227° Southwest 387 445 30,000  Level Los Angeles Center
Sun 06:27:36 PM 34.9650 -116.2433 227° Southwest 419 482 30,000  Level Los Angeles Center
Sun 06:28:38 PM 34.8808 -116.3528 227° Southwest 433 498 30,000  Level Los Angeles Center
Sun 06:29:40 PM 34.7967 -116.4653 228° Southwest 444 511 30,000  Level Los Angeles Center
Sun 06:30:42 PM 34.7128 -116.5775 228° Southwest 446 513 30,000  Level Los Angeles Center
Sun 06:31:44 PM 34.6189 -116.7164 231° Southwest 445 512 30,000  Level Los Angeles Center
Sun 06:32:47 PM 34.5875 -116.8628 255° West 447 514 30,000  Level Los Angeles Center
Sun 06:33:49 PM 34.5714 -117.0128 263° West 448 516 30,000  Level Los Angeles Center
Sun 06:34:51 PM 34.5553 -117.1619 263° West 447 514 30,000  Level Los Angeles Center
Sun 06:35:53 PM 34.5386 -117.3097 262° West 442 509 30,000  Level Los Angeles Center
Sun 06:36:55 PM 34.5219 -117.4581 262° West 442 509 30,000  Level Los Angeles Center
Sun 06:37:57 PM 34.5061 -117.6047 263° West 440 506 30,000  Level Los Angeles Center
Sun 06:38:59 PM 34.4861 -117.7817 262° West 441 507 30,000  Level Los Angeles Center
Sun 06:40:01 PM 34.4692 -117.9278 262° West 439 505 30,000  Level Los Angeles Center
Sun 06:41:03 PM 34.4506 -118.0772 261° West 450 518 30,000  Level Los Angeles Center
Sun 06:42:05 PM 34.4375 -118.2214 264° West 435 501 30,000 -242 Level Los Angeles Center
Sun 06:43:07 PM 34.4203 -118.3664 262° West 435 501 29,500 -968 Descending Los Angeles Center
Sun 06:44:09 PM 34.4025 -118.5106 262° West 430 495 28,000 -1,489 Descending Los Angeles Center
Sun 06:45:24 PM 34.3797 -118.6842 261° West 436 502 26,100 -1,533 Descending Los Angeles Center
Sun 06:46:26 PM 34.3578 -118.8664 262° West 444 511 24,500 -1,694 Descending Los Angeles Center
Sun 06:47:28 PM 34.3469 -118.9983 264° West 418 481 22,600 -2,758 Descending Los Angeles Center
Sun 06:48:30 PM 34.3378 -119.1286 265° West 396 456 18,800 -4,065 Descending Los Angeles Center
Sun 06:49:32 PM 34.3269 -119.2778 265° West 373 429 14,200 -4,022 Descending Los Angeles Center
Sun 06:50:01 PM 34.3242 -119.3289 266° West 365 420 12,700 -2,516 Descending Los Angeles Center
Sun 06:50:34 PM 34.3186 -119.3922 264° West 346 398 11,600 -2,219 Descending Los Angeles Center
Sun 06:51:14 PM 34.3128 -119.4606 264° West 320 368 10,000 -2,323 Descending Los Angeles Center
Sun 06:51:36 PM 34.3081 -119.4981 261° West 322 371 9,200 -2,459 Descending Los Angeles Center
Sun 06:52:15 PM 34.3108 -119.5681 273° West 303 349 7,500 -2,190 Descending Los Angeles Center
Sun 06:52:39 PM 34.3089 -119.5969 265° West 310 357 6,900 -1,770 Descending Los Angeles Center
Sun 06:53:16 PM 34.3119 -119.6589 273° West 282 325 5,700 -1,548 Descending Los Angeles Center
Sun 06:53:41 PM 34.3111 -119.6881 268° West 286 329 5,300 -985 Descending Los Angeles Center
Sun 06:54:23 PM 34.3475 -119.7306 316° Northwest 226 260 4,600 -1,065 Descending Los Angeles Center
Sun 06:54:43 PM 34.3517 -119.7381 304° West 244 281 4,200 -2,100 Descending Los Angeles Center
Sun 06:55:23 PM 34.3914 -119.7633 332° Northwest 178 205 2,500 -2,323 Descending Los Angeles Center
Sun 06:55:45 PM 34.4053 -119.7731 330° Northwest 201 231 1,800 -1,522 Descending Los Angeles Center
Sun 06:56:30 PM 34.4264 -119.7936 321° Northwest 133 153 800 -1,161 Descending Los Angeles Center
Sun 06:56:47 PM 34.4319 -119.8014 311° West 163 188 600 -655 Descending Los Angeles Center
Sun 06:57:25 PM 34.4278 -119.8297 260° West 119 137 200 -387 Descending Los Angeles Center
Sun 06:57:49 PM 34.4292 -119.8364 284° West 136 157 200  Level Los Angeles Center
Sun 06:59:00 PM 34.4262 -119.8415 292° West  Level Estimated

Login

Don't have an account? Register now (free) for customized features, flight alerts, and more!